createdAt,value
2018-12-24T00:00:25.146Z,14.30
2018-12-24T00:02:53.702Z,14.30
2018-12-24T00:05:22.425Z,14.30
2018-12-24T00:07:50.958Z,14.20
2018-12-24T00:10:19.724Z,14.20
2018-12-24T00:12:48.250Z,14.30
2018-12-24T00:15:16.886Z,14.30
2018-12-24T00:17:45.465Z,14.20
2018-12-24T00:20:14.109Z,14.20
2018-12-24T00:22:43.000Z,14.20
2018-12-24T00:25:11.630Z,14.10
2018-12-24T00:27:40.173Z,14.10
2018-12-24T00:30:08.727Z,14.20
2018-12-24T00:32:37.263Z,14.10
2018-12-24T00:35:05.830Z,14.10
2018-12-24T00:37:34.450Z,14.10
2018-12-24T00:40:03.219Z,14.10
2018-12-24T00:42:31.741Z,14.00
2018-12-24T00:45:00.299Z,14.00
2018-12-24T00:47:28.850Z,14.10
2018-12-24T00:49:57.408Z,14.10
2018-12-24T00:52:25.947Z,13.90
2018-12-24T00:54:54.510Z,13.70
2018-12-24T00:57:23.399Z,13.50
2018-12-24T00:59:51.966Z,13.20
2018-12-24T01:02:20.499Z,13.10
2018-12-24T01:04:49.142Z,13.00
2018-12-24T01:07:17.822Z,13.00
2018-12-24T01:09:46.468Z,13.10
2018-12-24T01:12:15.031Z,13.00
2018-12-24T01:14:43.656Z,13.10
2018-12-24T01:17:12.198Z,13.10
2018-12-24T01:19:40.803Z,13.00
2018-12-24T01:22:09.525Z,13.00
2018-12-24T01:24:38.063Z,13.10
2018-12-24T01:27:06.711Z,13.10
2018-12-24T01:29:35.238Z,13.10
2018-12-24T01:32:03.872Z,13.10
2018-12-24T01:34:32.522Z,13.10
2018-12-24T01:37:01.072Z,13.10
2018-12-24T01:39:29.609Z,13.10
2018-12-24T01:41:58.193Z,13.10
2018-12-24T01:44:26.723Z,13.10
2018-12-24T01:46:55.286Z,13.20
2018-12-24T01:49:23.840Z,13.10
2018-12-24T01:51:52.425Z,13.10
2018-12-24T01:54:20.951Z,13.10
2018-12-24T01:56:49.528Z,13.00
2018-12-24T01:59:18.120Z,13.00
2018-12-24T02:01:46.670Z,13.00
2018-12-24T02:04:15.211Z,13.10
2018-12-24T02:06:43.782Z,13.00
2018-12-24T02:09:12.330Z,12.90
2018-12-24T02:11:40.912Z,13.00
2018-12-24T02:14:09.453Z,12.90
2018-12-24T02:16:38.192Z,12.80
2018-12-24T02:19:06.728Z,12.70
2018-12-24T02:21:35.261Z,12.90
2018-12-24T02:24:03.987Z,12.60
2018-12-24T02:26:32.535Z,12.60
2018-12-24T02:29:01.098Z,12.70
2018-12-24T02:31:29.686Z,12.60
2018-12-24T02:33:58.249Z,12.50
2018-12-24T02:36:26.972Z,12.40
2018-12-24T02:38:55.558Z,12.20
2018-12-24T02:41:24.270Z,12.20
2018-12-24T02:43:52.923Z,12.10
2018-12-24T02:46:21.549Z,12.00
2018-12-24T02:48:50.123Z,12.00
2018-12-24T02:51:18.848Z,11.90
2018-12-24T02:53:47.491Z,11.90
2018-12-24T02:56:16.184Z,11.80
2018-12-24T02:58:44.945Z,11.70
2018-12-24T03:01:13.489Z,11.70
2018-12-24T03:03:42.067Z,11.60
2018-12-24T03:06:10.728Z,11.60
2018-12-24T03:08:39.375Z,11.50
2018-12-24T03:11:07.965Z,11.50
2018-12-24T03:13:36.603Z,11.40
2018-12-24T03:16:05.265Z,11.30
2018-12-24T03:18:33.830Z,11.30
2018-12-24T03:21:02.446Z,11.30
2018-12-24T03:23:31.061Z,11.30
2018-12-24T03:25:59.699Z,11.30
2018-12-24T03:28:28.261Z,11.30
2018-12-24T03:30:56.887Z,11.20
2018-12-24T03:33:25.499Z,11.10
2018-12-24T03:35:54.065Z,11.10
2018-12-24T03:38:22.683Z,11.10
2018-12-24T03:40:51.303Z,11.10
2018-12-24T03:43:19.912Z,11.10
2018-12-24T03:45:48.467Z,11.10
2018-12-24T03:48:17.027Z,11.10
2018-12-24T03:50:45.766Z,11.20
2018-12-24T03:53:14.306Z,11.20
2018-12-24T03:55:42.915Z,11.10
2018-12-24T03:58:11.516Z,11.10
2018-12-24T04:00:40.120Z,11.20
2018-12-24T04:03:08.653Z,11.20
2018-12-24T04:05:37.293Z,11.20
2018-12-24T04:08:05.838Z,11.20
2018-12-24T04:10:34.464Z,11.30
2018-12-24T04:13:03.078Z,11.20
2018-12-24T04:15:31.663Z,11.20
2018-12-24T04:18:00.203Z,11.20
2018-12-24T04:20:28.752Z,11.20
2018-12-24T04:22:57.296Z,11.10
2018-12-24T04:25:25.855Z,11.00
2018-12-24T04:27:54.402Z,11.00
2018-12-24T04:30:22.948Z,10.90
2018-12-24T04:32:51.534Z,10.80
2018-12-24T04:35:20.311Z,10.80
2018-12-24T04:37:48.865Z,10.70
2018-12-24T04:40:17.500Z,10.70
2018-12-24T04:42:46.148Z,10.60
2018-12-24T04:45:14.836Z,10.60
2018-12-24T04:47:43.569Z,10.50
2018-12-24T04:50:12.138Z,10.40
2018-12-24T04:52:40.872Z,10.30
2018-12-24T04:55:09.483Z,10.30
2018-12-24T04:57:38.149Z,10.20
2018-12-24T05:00:07.302Z,10.20
2018-12-24T05:02:35.949Z,10.20
2018-12-24T05:05:04.633Z,10.10
2018-12-24T05:07:33.352Z,10.20
2018-12-24T05:10:01.908Z,10.20
2018-12-24T05:12:30.471Z,10.20
2018-12-24T05:14:59.110Z,10.20
2018-12-24T05:17:27.778Z,10.20
2018-12-24T05:19:56.760Z,10.20
2018-12-24T05:22:26.256Z,10.10
2018-12-24T05:24:54.871Z,10.10
2018-12-24T05:27:23.915Z,10.10
2018-12-24T05:29:52.510Z,10.00
2018-12-24T05:32:21.075Z,10.00
2018-12-24T05:34:49.704Z,10.00
2018-12-24T05:37:18.483Z,10.00
2018-12-24T05:39:47.059Z,10.10
2018-12-24T05:42:15.806Z,10.10
2018-12-24T05:44:44.359Z,10.10
2018-12-24T05:47:13.085Z,10.20
2018-12-24T05:49:41.694Z,10.20
2018-12-24T05:52:10.497Z,10.30
2018-12-24T05:54:39.086Z,10.30
2018-12-24T05:57:07.612Z,10.40
2018-12-24T05:59:36.262Z,10.40
2018-12-24T06:02:04.812Z,10.40
2018-12-24T06:04:33.401Z,10.50
2018-12-24T06:07:02.283Z,10.50
2018-12-24T06:09:30.990Z,10.50
2018-12-24T06:11:59.575Z,10.60
2018-12-24T06:14:28.135Z,10.60
2018-12-24T06:16:56.675Z,10.60
2018-12-24T06:19:25.257Z,10.60
2018-12-24T06:21:53.923Z,10.60
2018-12-24T06:24:22.506Z,10.60
2018-12-24T06:26:51.155Z,10.60
2018-12-24T06:29:19.823Z,10.60
2018-12-24T06:31:48.432Z,10.60
2018-12-24T06:34:17.199Z,10.60
2018-12-24T06:36:45.748Z,10.60
2018-12-24T06:39:14.407Z,10.70
2018-12-24T06:41:43.347Z,10.70
2018-12-24T06:44:12.018Z,10.70
2018-12-24T06:46:40.672Z,10.60
2018-12-24T06:49:09.246Z,10.60
2018-12-24T06:51:38.000Z,10.60
2018-12-24T06:54:06.634Z,10.60
2018-12-24T06:56:35.247Z,10.60
2018-12-24T06:59:05.371Z,10.60
2018-12-24T07:01:34.033Z,10.60
2018-12-24T07:04:02.579Z,10.60
2018-12-24T07:06:31.139Z,10.50
2018-12-24T07:08:59.673Z,10.50
2018-12-24T07:11:28.291Z,10.50
2018-12-24T07:13:56.954Z,10.50
2018-12-24T07:16:25.579Z,10.50
2018-12-24T07:18:54.120Z,10.50
2018-12-24T07:21:22.749Z,10.50
2018-12-24T07:23:51.347Z,10.60
2018-12-24T07:26:19.912Z,10.60
2018-12-24T07:28:48.494Z,10.60
2018-12-24T07:31:17.932Z,10.60
2018-12-24T07:33:46.684Z,10.60
2018-12-24T07:36:15.268Z,10.60
2018-12-24T07:38:43.824Z,10.60
2018-12-24T07:41:12.400Z,10.60
2018-12-24T07:43:41.355Z,10.60
2018-12-24T07:46:09.968Z,10.60
2018-12-24T07:48:39.492Z,10.60
2018-12-24T07:51:08.192Z,10.60
2018-12-24T07:53:37.083Z,10.60
2018-12-24T07:56:05.661Z,10.60
2018-12-24T07:58:34.332Z,10.60
2018-12-24T08:01:02.915Z,10.60
2018-12-24T08:03:31.459Z,10.70
2018-12-24T08:06:00.013Z,10.70
2018-12-24T08:08:28.561Z,10.80
2018-12-24T08:10:57.134Z,10.80
2018-12-24T08:13:25.679Z,10.80
2018-12-24T08:15:54.407Z,10.70
2018-12-24T08:18:23.195Z,10.70
2018-12-24T08:20:51.873Z,10.70
2018-12-24T08:23:20.403Z,10.80
2018-12-24T08:25:48.965Z,10.80
2018-12-24T08:28:17.512Z,10.80
2018-12-24T08:30:46.065Z,10.80
2018-12-24T08:33:14.756Z,10.90
2018-12-24T08:35:43.588Z,10.80
2018-12-24T08:38:12.253Z,10.90
2018-12-24T08:40:41.083Z,10.80
2018-12-24T08:43:09.708Z,10.80
2018-12-24T08:45:38.817Z,10.70
2018-12-24T08:48:07.402Z,10.60
2018-12-24T08:50:39.116Z,10.60
2018-12-24T08:53:08.118Z,10.50
2018-12-24T08:55:36.812Z,10.40
2018-12-24T08:58:05.399Z,10.30
2018-12-24T09:00:33.971Z,10.30
2018-12-24T09:03:02.540Z,10.30
2018-12-24T09:05:31.398Z,10.30
2018-12-24T09:08:00.076Z,10.40
2018-12-24T09:10:28.995Z,10.50
2018-12-24T09:12:57.845Z,10.50
2018-12-24T09:15:26.532Z,10.70
2018-12-24T09:17:55.427Z,10.80
2018-12-24T09:20:23.985Z,11.00
2018-12-24T09:22:52.564Z,11.10
2018-12-24T09:25:21.127Z,11.20
2018-12-24T09:27:49.694Z,11.30
2018-12-24T09:30:18.250Z,11.30
2018-12-24T09:32:47.022Z,11.30
2018-12-24T09:35:15.755Z,11.20
2018-12-24T09:37:44.405Z,11.20
2018-12-24T09:40:14.835Z,11.20
2018-12-24T09:42:43.392Z,11.20
2018-12-24T09:45:12.546Z,11.20
2018-12-24T09:47:41.271Z,11.30
2018-12-24T09:50:12.115Z,11.30
2018-12-24T09:52:40.405Z,11.30
2018-12-24T09:55:09.035Z,11.40
2018-12-24T09:57:37.788Z,11.50
2018-12-24T10:00:09.566Z,11.50
2018-12-24T10:02:40.823Z,11.50
2018-12-24T10:05:09.721Z,11.60
2018-12-24T10:07:40.384Z,11.50
2018-12-24T10:10:10.522Z,11.50
2018-12-24T10:12:39.098Z,11.50
2018-12-24T10:15:08.233Z,11.50
2018-12-24T10:17:37.123Z,11.60
2018-12-24T10:20:06.744Z,11.60
2018-12-24T10:22:35.341Z,11.70
2018-12-24T10:25:04.083Z,11.80
2018-12-24T10:27:32.725Z,11.90
2018-12-24T10:30:01.293Z,11.90
2018-12-24T10:32:29.835Z,12.00
2018-12-24T10:34:58.520Z,12.00
2018-12-24T10:37:27.070Z,12.10
2018-12-24T10:39:58.805Z,12.10
2018-12-24T10:42:27.619Z,12.10
2018-12-24T10:44:56.196Z,12.10
2018-12-24T10:47:24.737Z,12.10
2018-12-24T10:49:53.342Z,12.20
2018-12-24T10:52:21.976Z,12.20
2018-12-24T10:54:50.557Z,12.30
2018-12-24T10:57:19.125Z,12.30
2018-12-24T10:59:47.709Z,12.30
2018-12-24T11:02:16.583Z,12.30
2018-12-24T11:04:45.229Z,12.30
2018-12-24T11:07:13.943Z,12.40
2018-12-24T11:09:43.065Z,12.40
2018-12-24T11:12:11.653Z,12.40
2018-12-24T11:14:41.849Z,12.50
2018-12-24T11:17:10.549Z,12.60
2018-12-24T11:20:23.974Z,12.60
2018-12-24T11:22:52.602Z,12.70
2018-12-24T11:25:21.207Z,12.80
2018-12-24T11:27:50.655Z,12.90
2018-12-24T11:30:20.048Z,12.90
2018-12-24T11:32:48.721Z,13.10
2018-12-24T11:35:17.255Z,13.10
2018-12-24T11:37:45.780Z,13.10
2018-12-24T11:40:14.513Z,13.20
2018-12-24T11:42:42.947Z,13.20
2018-12-24T11:45:11.502Z,13.30
2018-12-24T11:47:39.954Z,13.30
2018-12-24T11:50:08.415Z,13.40
2018-12-24T11:52:36.940Z,13.40
2018-12-24T11:55:05.701Z,13.40
2018-12-24T11:57:34.203Z,13.40
2018-12-24T12:00:02.721Z,13.40
2018-12-24T12:02:31.179Z,13.50
2018-12-24T12:04:59.621Z,13.50
2018-12-24T12:07:28.153Z,13.60
2018-12-24T12:09:56.853Z,13.60
2018-12-24T12:12:25.532Z,13.60
2018-12-24T12:14:53.953Z,13.60
2018-12-24T12:17:22.412Z,13.60
2018-12-24T12:19:51.019Z,13.60
2018-12-24T12:22:21.479Z,13.60
2018-12-24T12:24:49.811Z,13.50
2018-12-24T12:27:18.279Z,13.40
2018-12-24T12:29:47.051Z,13.40
2018-12-24T12:32:15.581Z,13.40
2018-12-24T12:34:44.090Z,13.30
2018-12-24T12:37:12.593Z,13.20
2018-12-24T12:39:41.323Z,13.20
2018-12-24T12:42:09.781Z,13.20
2018-12-24T12:44:38.296Z,13.20
2018-12-24T12:47:06.907Z,13.20
2018-12-24T12:49:35.477Z,13.20
2018-12-24T12:52:03.956Z,13.20
2018-12-24T12:54:32.391Z,13.20
2018-12-24T12:57:00.848Z,13.30
2018-12-24T12:59:29.301Z,13.30
2018-12-24T13:01:57.815Z,13.40
2018-12-24T13:04:26.499Z,13.40
2018-12-24T13:06:55.058Z,13.30
2018-12-24T13:09:23.538Z,13.20
2018-12-24T13:11:52.003Z,13.30
2018-12-24T13:14:20.459Z,13.30
2018-12-24T13:16:48.963Z,13.30
2018-12-24T13:19:17.855Z,13.20
2018-12-24T13:21:47.574Z,13.30
2018-12-24T13:24:16.521Z,13.30
2018-12-24T13:26:44.977Z,13.30
2018-12-24T13:29:13.572Z,13.30
2018-12-24T13:31:42.107Z,13.20
2018-12-24T13:34:10.584Z,13.10
2018-12-24T13:36:39.018Z,13.10
2018-12-24T13:39:07.571Z,13.00
2018-12-24T13:41:36.084Z,13.00
2018-12-24T13:44:04.608Z,13.00
2018-12-24T13:46:33.129Z,13.00
2018-12-24T13:49:01.746Z,13.10
2018-12-24T13:51:30.193Z,13.10
2018-12-24T13:53:58.662Z,13.10
2018-12-24T13:56:27.197Z,13.10
2018-12-24T13:58:55.881Z,13.10
2018-12-24T14:01:24.391Z,13.00
2018-12-24T14:03:52.880Z,13.00
2018-12-24T14:06:21.756Z,13.00
2018-12-24T14:08:50.302Z,12.90
2018-12-24T14:11:19.105Z,12.90
2018-12-24T14:13:47.684Z,12.80
2018-12-24T14:16:16.855Z,12.80
2018-12-24T14:18:45.714Z,12.80
2018-12-24T14:21:14.142Z,12.80
2018-12-24T14:23:42.639Z,12.70
2018-12-24T14:26:11.080Z,12.80
2018-12-24T14:28:39.552Z,12.70
2018-12-24T14:31:08.007Z,12.60
2018-12-24T14:33:36.472Z,12.50
2018-12-24T14:36:04.947Z,12.40
2018-12-24T14:38:33.381Z,12.20
2018-12-24T14:41:02.266Z,12.10
2018-12-24T14:43:30.701Z,12.10
2018-12-24T14:45:59.256Z,12.00
2018-12-24T14:48:27.763Z,12.10
2018-12-24T14:50:56.313Z,12.00
2018-12-24T14:53:24.781Z,11.90
2018-12-24T14:55:53.263Z,11.90
2018-12-24T14:58:21.911Z,11.80
2018-12-24T15:00:50.474Z,11.80
2018-12-24T15:03:19.142Z,11.70
2018-12-24T15:05:47.664Z,11.70
2018-12-24T15:08:16.159Z,11.60
2018-12-24T15:10:44.611Z,11.60
2018-12-24T15:13:13.140Z,11.50
2018-12-24T15:15:41.591Z,11.50
2018-12-24T15:18:10.120Z,11.40
2018-12-24T15:20:38.610Z,11.40
2018-12-24T15:23:07.050Z,11.30
2018-12-24T15:25:35.507Z,11.30
2018-12-24T15:28:03.944Z,11.20
2018-12-24T15:30:33.859Z,11.10
2018-12-24T15:33:02.309Z,11.10
2018-12-24T15:35:30.859Z,11.00
2018-12-24T15:37:59.303Z,11.00
2018-12-24T15:40:27.765Z,10.90
2018-12-24T15:42:56.300Z,10.90
2018-12-24T15:45:24.904Z,10.80
2018-12-24T15:47:53.351Z,10.80
2018-12-24T15:50:21.817Z,10.80
2018-12-24T15:52:50.243Z,10.80
2018-12-24T15:55:18.678Z,10.80
2018-12-24T15:57:47.237Z,10.80
2018-12-24T16:00:15.839Z,10.80
2018-12-24T16:02:44.393Z,10.70
2018-12-24T16:05:12.899Z,10.70
2018-12-24T16:07:41.443Z,10.70
2018-12-24T16:10:10.436Z,10.60
2018-12-24T16:12:38.979Z,10.50
2018-12-24T16:15:07.403Z,10.50
2018-12-24T16:17:35.871Z,10.50
2018-12-24T16:20:05.171Z,10.40
2018-12-24T16:22:33.749Z,10.50
2018-12-24T16:25:02.331Z,10.40
2018-12-24T16:27:31.201Z,10.40
2018-12-24T16:29:59.707Z,10.30
2018-12-24T16:32:28.227Z,10.30
2018-12-24T16:34:56.646Z,10.20
2018-12-24T16:37:25.103Z,10.20
2018-12-24T16:39:53.535Z,10.20
2018-12-24T16:42:22.088Z,10.10
2018-12-24T16:44:50.599Z,10.10
2018-12-24T16:47:19.085Z,10.00
2018-12-24T16:49:47.900Z,10.00
2018-12-24T16:52:16.424Z,10.00
2018-12-24T16:54:44.853Z,9.90
2018-12-24T16:57:13.327Z,9.90
2018-12-24T16:59:41.776Z,9.80
2018-12-24T17:02:10.232Z,9.80
2018-12-24T17:04:38.762Z,9.70
2018-12-24T17:07:07.214Z,9.70
2018-12-24T17:09:35.661Z,9.60
2018-12-24T17:12:04.155Z,9.60
2018-12-24T17:14:32.633Z,9.60
2018-12-24T17:17:07.711Z,9.50
2018-12-24T17:19:32.823Z,9.50
2018-12-24T17:22:01.267Z,9.50
2018-12-24T17:24:29.720Z,9.50
2018-12-24T17:26:58.165Z,9.40
2018-12-24T17:29:26.684Z,9.40
2018-12-24T17:31:55.228Z,9.40
2018-12-24T17:34:23.776Z,9.30
2018-12-24T17:36:52.270Z,9.30
2018-12-24T17:39:20.744Z,9.30
2018-12-24T17:41:49.186Z,9.20
2018-12-24T17:44:17.753Z,9.20
2018-12-24T17:46:46.262Z,9.20
2018-12-24T17:49:14.742Z,9.20
2018-12-24T17:51:43.813Z,9.20
2018-12-24T17:54:12.287Z,9.20
2018-12-24T17:56:40.730Z,9.20
2018-12-24T17:59:09.715Z,9.20
2018-12-24T18:01:38.288Z,9.10
2018-12-24T18:04:06.736Z,9.00
2018-12-24T18:06:35.247Z,8.90
2018-12-24T18:09:04.870Z,8.80
2018-12-24T18:11:33.324Z,8.70
2018-12-24T18:14:21.118Z,8.60
2018-12-24T18:16:49.727Z,8.60
2018-12-24T18:19:18.286Z,8.60
2018-12-24T18:21:46.728Z,8.50
2018-12-24T18:24:15.175Z,8.40
2018-12-24T18:26:43.649Z,8.30
2018-12-24T18:29:12.250Z,8.20
2018-12-24T18:31:40.818Z,8.20
2018-12-24T18:34:09.271Z,8.20
2018-12-24T18:36:37.698Z,8.10
2018-12-24T18:39:06.620Z,8.00
2018-12-24T18:41:35.071Z,7.90
2018-12-24T18:44:03.602Z,7.90
2018-12-24T18:46:34.048Z,7.80
2018-12-24T18:49:02.513Z,7.70
2018-12-24T18:51:31.012Z,7.60
2018-12-24T18:53:59.444Z,7.60
2018-12-24T18:56:27.904Z,7.70
2018-12-24T18:58:56.335Z,7.70
2018-12-24T19:01:24.806Z,7.60
2018-12-24T19:03:53.407Z,7.60
2018-12-24T19:06:21.897Z,7.60
2018-12-24T19:08:50.385Z,7.60
2018-12-24T19:11:18.922Z,7.60
2018-12-24T19:13:47.533Z,7.50
2018-12-24T19:16:16.077Z,7.50
2018-12-24T19:18:44.577Z,7.40
2018-12-24T19:21:13.043Z,7.40
2018-12-24T19:23:41.552Z,7.40
2018-12-24T19:26:10.167Z,7.30
2018-12-24T19:28:38.687Z,7.10
2018-12-24T19:31:07.151Z,7.00
2018-12-24T19:33:35.582Z,6.90
2018-12-24T19:36:04.039Z,6.90
2018-12-24T19:38:32.480Z,6.80
2018-12-24T19:41:01.044Z,6.90
2018-12-24T19:43:29.537Z,6.80
2018-12-24T19:45:58.019Z,6.80
2018-12-24T19:48:26.519Z,6.80
2018-12-24T19:50:55.047Z,6.80
2018-12-24T19:53:23.499Z,6.80
2018-12-24T19:55:52.424Z,6.60
2018-12-24T19:58:20.936Z,6.60
2018-12-24T20:00:49.439Z,6.60
2018-12-24T20:03:18.902Z,6.50
2018-12-24T20:05:47.463Z,6.50
2018-12-24T20:08:16.034Z,6.40
2018-12-24T20:10:44.499Z,6.40
2018-12-24T20:13:12.940Z,6.30
2018-12-24T20:15:41.367Z,6.40
2018-12-24T20:18:09.938Z,6.30
2018-12-24T20:20:38.434Z,6.30
2018-12-24T20:23:06.899Z,6.30
2018-12-24T20:25:35.440Z,6.20
2018-12-24T20:28:03.980Z,6.10
2018-12-24T20:30:32.409Z,6.10
2018-12-24T20:33:01.313Z,6.00
2018-12-24T20:35:29.839Z,6.00
2018-12-24T20:37:58.636Z,6.00
2018-12-24T20:40:27.150Z,5.90
2018-12-24T20:42:56.085Z,5.90
2018-12-24T20:45:24.518Z,5.90
2018-12-24T20:47:53.317Z,5.90
2018-12-24T20:50:21.757Z,5.80
2018-12-24T20:52:50.302Z,5.80
2018-12-24T20:55:18.751Z,5.80
2018-12-24T20:57:47.304Z,5.80
2018-12-24T21:00:15.744Z,5.80
2018-12-24T21:02:44.254Z,5.90
2018-12-24T21:05:12.695Z,5.90
2018-12-24T21:07:41.145Z,6.00
2018-12-24T21:10:09.690Z,6.00
2018-12-24T21:12:38.265Z,6.00
2018-12-24T21:15:06.775Z,6.00
2018-12-24T21:17:35.253Z,6.00
2018-12-24T21:20:06.738Z,6.00
2018-12-24T21:22:42.899Z,6.00
2018-12-24T21:25:17.619Z,5.90
2018-12-24T21:27:47.566Z,5.90
2018-12-24T21:30:17.855Z,5.90
2018-12-24T21:32:46.399Z,5.90
2018-12-24T21:35:14.903Z,5.80
2018-12-24T21:37:43.367Z,5.80
2018-12-24T21:40:11.846Z,5.80
2018-12-24T21:42:43.463Z,5.80
2018-12-24T21:45:11.922Z,5.90
2018-12-24T21:47:40.351Z,5.90
2018-12-24T21:50:08.900Z,5.90
2018-12-24T21:52:37.357Z,6.00
2018-12-24T21:55:05.937Z,6.00
2018-12-24T21:57:34.527Z,5.90
2018-12-24T22:00:03.180Z,5.90
2018-12-24T22:02:31.635Z,5.90
2018-12-24T22:05:00.259Z,5.80
2018-12-24T22:07:28.827Z,5.70
2018-12-24T22:09:57.425Z,5.80
2018-12-24T22:12:25.998Z,5.60
2018-12-24T22:14:54.618Z,5.50
2018-12-24T22:17:23.129Z,5.50
2018-12-24T22:19:51.667Z,5.60
2018-12-24T22:22:20.260Z,5.50
2018-12-24T22:24:48.866Z,5.40
2018-12-24T22:27:18.665Z,5.40
2018-12-24T22:29:47.119Z,5.40
2018-12-24T22:32:15.569Z,5.40
2018-12-24T22:34:44.192Z,5.30
2018-12-24T22:37:13.013Z,5.20
2018-12-24T22:39:41.853Z,5.10
2018-12-24T22:42:10.298Z,5.00
2018-12-24T22:44:38.792Z,5.00
2018-12-24T22:47:07.318Z,5.00
2018-12-24T22:49:35.843Z,4.90
2018-12-24T22:52:04.386Z,5.00
2018-12-24T22:54:33.107Z,5.00
2018-12-24T22:57:01.903Z,5.00
2018-12-24T22:59:30.775Z,5.00
2018-12-24T23:01:59.334Z,5.00
2018-12-24T23:04:27.887Z,5.00
2018-12-24T23:06:56.337Z,5.00
2018-12-24T23:09:24.818Z,5.00
2018-12-24T23:11:53.272Z,4.90
2018-12-24T23:14:21.782Z,4.90
2018-12-24T23:16:50.323Z,4.90
2018-12-24T23:19:18.783Z,4.90
2018-12-24T23:21:47.424Z,4.90
2018-12-24T23:24:15.984Z,4.90
2018-12-24T23:26:44.454Z,4.90
2018-12-24T23:29:12.905Z,5.00
2018-12-24T23:31:41.351Z,5.00
2018-12-24T23:34:09.865Z,5.00
2018-12-24T23:36:38.314Z,5.00
2018-12-24T23:39:07.136Z,4.90
2018-12-24T23:41:35.575Z,4.90
2018-12-24T23:44:04.095Z,4.90
2018-12-24T23:46:32.544Z,4.90
2018-12-24T23:49:01.100Z,4.90
2018-12-24T23:51:29.672Z,4.80
2018-12-24T23:53:58.137Z,4.80
2018-12-24T23:56:26.676Z,4.80
2018-12-24T23:58:55.150Z,4.80
